Time;durP1;ratioP1;P1;durP2;ratioP2;P2;SDS_P1;SDS_P2;PMS_P1;PMS_P2;Temp;Humidity;BMP_temperature;BMP_pressure;BME280_temperature;BME280_humidity;BME280_pressure;Samples;Min_cycle;Max_cycle;Signal;HPM_P1;HPM_P2
2023/06/13 00:00:51;;;;;;;11.55;10.40;;;24.80;99.90;;;;;;5029634;28;20391;-63
2023/06/13 00:03:19;;;;;;;13.02;9.88;;;24.80;99.90;;;;;;5034554;28;20498;-61
2023/06/13 00:05:46;;;;;;;11.75;10.63;;;24.80;1.00;;;;;;5032171;28;20038;-60
2023/06/13 00:08:18;;;;;;;12.82;11.52;;;24.80;1.00;;;;;;5030615;28;20044;-60
2023/06/13 00:10:52;;;;;;;12.93;10.32;;;24.80;1.00;;;;;;5033309;28;20030;-61
2023/06/13 00:13:18;;;;;;;11.07;9.95;;;24.70;1.00;;;;;;5034310;28;20353;-61
2023/06/13 00:15:49;;;;;;;11.93;10.43;;;24.70;1.00;;;;;;5032868;28;20044;-59
2023/06/13 00:18:17;;;;;;;11.65;9.82;;;24.70;1.00;;;;;;5033179;28;20033;-60
2023/06/13 00:20:44;;;;;;;13.05;11.60;;;24.70;1.00;;;;;;5032436;28;20053;-60
2023/06/13 00:23:09;;;;;;;12.10;10.95;;;24.70;1.00;;;;;;5033704;28;20372;-60
2023/06/13 00:25:35;;;;;;;11.43;10.30;;;24.60;1.00;;;;;;5032124;28;20123;-61
2023/06/13 00:28:01;;;;;;;12.00;10.93;;;24.70;1.00;;;;;;5037750;28;20041;-61
2023/06/13 00:30:31;;;;;;;12.55;11.25;;;24.60;1.00;;;;;;5042187;28;20067;-61
2023/06/13 00:32:56;;;;;;;12.25;11.02;;;24.50;1.00;;;;;;5033125;28;20493;-59
2023/06/13 00:35:22;;;;;;;13.88;10.95;;;24.50;1.00;;;;;;5032818;28;20029;-59
2023/06/13 00:37:54;;;;;;;12.77;11.23;;;24.50;1.00;;;;;;5032781;28;20033;-59
2023/06/13 00:40:20;;;;;;;12.00;10.65;;;24.50;1.00;;;;;;5031487;28;20040;-61
2023/06/13 00:42:46;;;;;;;11.63;10.63;;;24.50;1.00;;;;;;5030405;28;20045;-61
2023/06/13 00:45:21;;;;;;;12.77;11.45;;;24.30;1.00;;;;;;5030250;28;20030;-60
2023/06/13 00:48:06;;;;;;;11.02;9.95;;;24.20;1.00;;;;;;5033162;28;20029;-60
2023/06/13 00:50:40;;;;;;;10.20;9.30;;;24.20;1.00;;;;;;5034840;28;20406;-61
2023/06/13 00:53:18;;;;;;;8.55;7.75;;;24.10;1.00;;;;;;5036844;28;20418;-61
2023/06/13 00:55:45;;;;;;;9.45;8.55;;;;;;;;;;5028879;28;20037;-60
2023/06/13 00:58:12;;;;;;;8.82;8.13;;;;;;;;;;5046966;28;20045;-61
2023/06/13 01:00:39;;;;;;;8.18;7.28;;;24.10;1.00;;;;;;5031484;28;20033;-61
2023/06/13 01:03:10;;;;;;;7.60;6.90;;;24.10;1.00;;;;;;5032734;28;20018;-61
2023/06/13 01:05:37;;;;;;;7.07;6.38;;;23.90;1.00;;;;;;5032615;28;20108;-59
2023/06/13 01:08:09;;;;;;;6.75;6.15;;;24.00;1.00;;;;;;5032376;28;20025;-59
2023/06/13 01:10:36;;;;;;;6.60;5.97;;;23.90;1.00;;;;;;5030700;28;20418;-60
2023/06/13 01:13:09;;;;;;;5.78;5.30;;;;;;;;;;5031881;28;20020;-60
2023/06/13 01:15:37;;;;;;;6.60;5.68;;;;;;;;;;5031310;28;20042;-61
2023/06/13 01:18:05;;;;;;;5.18;4.68;;;;;;;;;;5033029;28;20036;-61
2023/06/13 01:20:35;;;;;;;4.57;3.95;;;;;;;;;;5030228;28;20515;-61
2023/06/13 01:23:06;;;;;;;6.63;4.18;;;;;;;;;;5029711;28;20475;-61
2023/06/13 01:25:42;;;;;;;5.50;3.67;;;;;;;;;;5028352;28;20038;-61
2023/06/13 01:28:13;;;;;;;3.88;3.53;;;;;;;;;;5017761;28;20040;-60
2023/06/13 01:30:42;;;;;;;5.30;3.03;;;;;;;;;;5027556;28;20091;-61
2023/06/13 01:33:09;;;;;;;4.38;3.40;;;;;;;;;;5030343;28;20104;-60
2023/06/13 01:35:36;;;;;;;3.60;3.20;;;23.80;99.90;;;;;;5034408;28;20521;-61
2023/06/13 01:38:04;;;;;;;3.45;3.15;;;23.80;1.00;;;;;;5036357;28;20480;-61
2023/06/13 01:40:30;;;;;;;3.20;2.95;;;23.60;1.00;;;;;;5032443;28;20036;-61
2023/06/13 01:42:55;;;;;;;3.22;2.97;;;23.60;1.00;;;;;;5024034;28;20449;-60
2023/06/13 01:45:23;;;;;;;2.90;2.70;;;23.70;1.00;;;;;;5039088;28;20021;-60
2023/06/13 01:48:22;;;;;;;3.28;2.85;;;23.80;1.00;;;;;;5031019;28;20083;-60
2023/06/13 01:51:08;;;;;;;2.92;2.50;;;23.80;1.00;;;;;;5031878;28;20053;-60
2023/06/13 01:54:03;;;;;;;2.95;2.55;;;23.80;1.00;;;;;;5030124;28;20033;-61
2023/06/13 01:56:31;;;;;;;2.20;2.10;;;23.70;1.00;;;;;;5031700;28;20069;-61
2023/06/13 01:59:00;;;;;;;4.18;2.90;;;23.80;1.00;;;;;;5037311;28;20010;-59
2023/06/13 02:01:28;;;;;;;2.90;2.70;;;23.80;1.00;;;;;;5031315;28;20386;-59
2023/06/13 02:04:00;;;;;;;4.03;2.53;;;23.70;1.00;;;;;;5031951;28;20401;-60
2023/06/13 02:06:26;;;;;;;2.58;2.38;;;23.60;1.00;;;;;;5031198;28;20094;-60
2023/06/13 02:08:52;;;;;;;2.83;2.33;;;23.50;1.00;;;;;;5048147;28;20033;-60
2023/06/13 02:11:18;;;;;;;2.33;2.22;;;23.60;1.00;;;;;;5036099;28;20472;-60
2023/06/13 02:13:44;;;;;;;2.30;2.10;;;23.60;1.00;;;;;;5028050;28;20059;-60
2023/06/13 02:16:11;;;;;;;2.50;2.30;;;23.60;1.00;;;;;;5030691;28;20179;-59
2023/06/13 02:18:39;;;;;;;2.30;2.20;;;23.60;1.00;;;;;;5029635;28;20036;-60
2023/06/13 02:21:05;;;;;;;2.00;1.90;;;23.60;1.00;;;;;;5032164;28;20128;-60
2023/06/13 02:23:31;;;;;;;2.72;2.40;;;23.40;1.00;;;;;;5035105;28;20116;-60
2023/06/13 02:25:57;;;;;;;3.17;2.45;;;23.40;1.00;;;;;;5034376;28;20495;-59
2023/06/13 02:28:23;;;;;;;2.60;2.40;;;23.40;1.00;;;;;;5035905;28;20045;-60
2023/06/13 02:30:49;;;;;;;3.80;2.40;;;23.50;1.00;;;;;;5034485;28;20383;-60
2023/06/13 02:33:15;;;;;;;2.55;2.35;;;23.40;1.00;;;;;;5049534;28;20040;-60
2023/06/13 02:35:42;;;;;;;2.22;2.00;;;23.40;1.00;;;;;;5034341;28;20426;-60
2023/06/13 02:38:08;;;;;;;2.30;2.10;;;23.40;1.00;;;;;;5035008;28;20021;-60
2023/06/13 02:40:36;;;;;;;3.35;2.38;;;23.30;1.00;;;;;;5032691;28;20037;-59
2023/06/13 02:43:02;;;;;;;3.58;2.55;;;23.40;1.00;;;;;;5033392;28;20103;-59
2023/06/13 02:45:28;;;;;;;2.72;2.53;;;23.40;1.00;;;;;;5033267;28;20645;-60
2023/06/13 02:47:54;;;;;;;2.55;2.10;;;23.30;1.00;;;;;;5034072;28;20120;-59
2023/06/13 02:50:21;;;;;;;2.58;2.38;;;23.30;1.00;;;;;;5032261;28;20041;-60
2023/06/13 02:52:47;;;;;;;2.67;2.47;;;23.40;1.00;;;;;;5034485;28;20240;-59
2023/06/13 02:55:13;;;;;;;3.95;3.05;;;23.40;1.00;;;;;;5064111;28;20048;-60
2023/06/13 02:57:39;;;;;;;3.15;2.67;;;23.30;1.00;;;;;;5035547;28;20044;-60
2023/06/13 03:00:10;;;;;;;3.50;2.47;;;23.30;1.00;;;;;;5033325;28;20483;-60
2023/06/13 03:02:37;;;;;;;3.10;2.80;;;23.30;1.00;;;;;;5035726;28;20031;-60
2023/06/13 03:05:08;;;;;;;3.30;2.95;;;23.30;1.00;;;;;;5034112;28;20076;-60
2023/06/13 03:07:33;;;;;;;3.40;3.10;;;23.20;1.00;;;;;;5035359;28;20021;-60
2023/06/13 03:10:06;;;;;;;3.83;2.92;;;23.20;1.00;;;;;;5032973;28;20383;-60
2023/06/13 03:12:32;;;;;;;3.70;3.28;;;23.30;1.00;;;;;;5035346;28;20013;-60
2023/06/13 03:14:57;;;;;;;4.78;4.38;;;23.20;1.00;;;;;;5034023;28;20116;-60
2023/06/13 03:17:23;;;;;;;5.10;4.70;;;23.20;1.00;;;;;;5040411;28;20033;-60
2023/06/13 03:19:50;;;;;;;5.03;4.40;;;23.00;1.00;;;;;;5036863;28;20029;-60
2023/06/13 03:22:16;;;;;;;4.68;4.28;;;23.00;1.00;;;;;;5032393;28;20140;-60
2023/06/13 03:24:45;;;;;;;5.20;4.72;;;23.00;1.00;;;;;;5025659;28;20116;-60
2023/06/13 03:27:12;;;;;;;5.05;4.63;;;23.00;1.00;;;;;;5034761;28;20029;-60
2023/06/13 03:29:38;;;;;;;5.97;4.35;;;;;;;;;;5032338;28;20037;-61
2023/06/13 03:32:05;;;;;;;5.03;4.63;;;;;;;;;;5033685;28;20087;-61
2023/06/13 03:34:38;;;;;;;5.68;4.50;;;;;;;;;;5033910;28;20021;-61
2023/06/13 03:37:08;;;;;;;5.53;4.28;;;;;;;;;;5034153;28;20037;-61
2023/06/13 03:39:34;;;;;;;5.70;4.53;;;;;;;;;;5034454;28;20351;-61
2023/06/13 03:42:01;;;;;;;6.70;4.65;;;;;;;;;;5034664;28;20021;-61
2023/06/13 03:44:27;;;;;;;5.82;4.78;;;;;;;;;;5033167;28;20026;-61
2023/06/13 03:46:54;;;;;;;6.10;5.60;;;;;;;;;;5035211;28;20018;-61
2023/06/13 03:49:20;;;;;;;5.45;4.82;;;;;;;;;;5032872;28;20379;-61
2023/06/13 03:51:47;;;;;;;7.47;5.35;;;;;;;;;;5035117;28;20076;-60
2023/06/13 03:54:13;;;;;;;5.82;4.03;;;;;;;;;;5025430;28;20053;-61
2023/06/13 03:56:39;;;;;;;4.82;4.43;;;;;;;;;;5035041;28;20521;-61
2023/06/13 03:59:05;;;;;;;6.50;4.47;;;;;;;;;;5033347;28;20038;-60
2023/06/13 04:01:31;;;;;;;4.75;4.35;;;;;;;;;;5033432;28;20029;-60
2023/06/13 04:03:57;;;;;;;5.13;4.18;;;;;;;;;;5032357;28;20033;-61
2023/06/13 04:06:23;;;;;;;4.90;4.50;;;;;;;;;;5034046;28;20033;-61
2023/06/13 04:08:50;;;;;;;3.65;3.35;;;;;;;;;;5034257;28;20044;-60
2023/06/13 04:11:16;;;;;;;3.88;3.50;;;;;;;;;;5032684;28;20383;-61
2023/06/13 04:13:42;;;;;;;4.20;3.90;;;;;;;;;;5034686;28;20395;-61
2023/06/13 04:16:08;;;;;;;4.15;3.75;;;;;;;;;;5033391;28;20079;-60
2023/06/13 04:18:36;;;;;;;4.35;3.95;;;;;;;;;;5032929;28;20111;-61
2023/06/13 04:21:03;;;;;;;6.07;3.75;;;;;;;;;;5047958;28;20024;-61
2023/06/13 04:23:30;;;;;;;4.85;3.88;;;;;;;;;;5033521;28;20095;-61
2023/06/13 04:25:57;;;;;;;4.90;3.40;;;;;;;;;;5033250;28;20022;-61
2023/06/13 04:28:24;;;;;;;4.38;4.03;;;;;;;;;;5032115;28;20372;-61
2023/06/13 04:30:51;;;;;;;3.42;3.17;;;;;;;;;;5034528;28;20029;-61
2023/06/13 04:33:17;;;;;;;3.65;3.35;;;;;;;;;;5031792;28;20108;-61
2023/06/13 04:35:48;;;;;;;4.40;3.83;;;;;;;;;;5031997;28;20037;-61
2023/06/13 04:38:21;;;;;;;4.30;3.60;;;;;;;;;;5034590;28;20042;-61
2023/06/13 04:40:48;;;;;;;5.05;3.83;;;;;;;;;;5033604;28;20028;-61
2023/06/13 04:43:21;;;;;;;3.80;3.38;;;;;;;;;;5034547;28;20467;-61
2023/06/13 04:45:48;;;;;;;4.47;3.50;;;;;;;;;;5033376;28;20022;-61
2023/06/13 04:48:15;;;;;;;4.25;3.85;;;;;;;;;;5032479;28;20052;-61
2023/06/13 04:50:41;;;;;;;8.40;4.15;;;;;;;;;;5032916;28;20049;-59
2023/06/13 04:53:15;;;;;;;4.03;3.47;;;;;;;;;;5034261;28;20021;-60
2023/06/13 04:55:42;;;;;;;3.90;3.60;;;;;;;;;;5033261;28;20041;-62
2023/06/13 04:58:08;;;;;;;4.22;3.63;;;;;;;;;;5033786;28;20501;-60
2023/06/13 05:00:34;;;;;;;3.63;3.33;;;;;;;;;;5028737;28;20022;-61
2023/06/13 05:03:01;;;;;;;3.72;3.38;;;;;;;;;;5033764;28;20512;-61
2023/06/13 05:05:27;;;;;;;5.63;3.90;;;;;;;;;;5031325;28;20029;-60
2023/06/13 05:07:55;;;;;;;5.45;4.13;;;;;;;;;;5032938;28;20031;-61
2023/06/13 05:10:24;;;;;;;4.63;3.70;;;;;;;;;;5032748;28;20061;-60
2023/06/13 05:12:54;;;;;;;3.58;3.20;;;;;;;;;;5032283;28;20502;-63
2023/06/13 05:15:21;;;;;;;3.58;3.28;;;;;;;;;;5032721;28;20068;-61
2023/06/13 05:17:48;;;;;;;10.13;3.50;;;;;;;;;;5032981;28;20072;-61
2023/06/13 05:20:17;;;;;;;4.22;3.60;;;;;;;;;;5031553;28;20026;-61
2023/06/13 05:22:43;;;;;;;7.45;3.35;;;;;;;;;;5032089;28;20040;-61
2023/06/13 05:25:11;;;;;;;4.03;3.33;;;;;;;;;;5032620;28;20024;-61
2023/06/13 05:27:38;;;;;;;4.13;2.80;;;;;;;;;;5032491;28;20025;-61
2023/06/13 05:30:06;;;;;;;3.88;3.45;;;;;;;;;;5032789;28;20038;-61
2023/06/13 05:32:32;;;;;;;3.85;3.13;;;;;;;;;;5032181;28;20446;-61
2023/06/13 05:34:58;;;;;;;3.60;3.30;;;;;;;;;;5033360;28;20087;-61
2023/06/13 05:37:24;;;;;;;4.22;3.15;;;;;;;;;;5028090;28;20053;-60
2023/06/13 05:39:50;;;;;;;3.58;3.28;;;;;;;;;;5030541;28;20048;-60
2023/06/13 05:42:16;;;;;;;3.00;2.70;;;;;;;;;;5033181;28;20029;-60
2023/06/13 05:44:42;;;;;;;4.13;3.10;;;;;;;;;;5033345;28;20026;-59
2023/06/13 05:47:08;;;;;;;4.55;2.70;;;;;;;;;;5032494;28;20026;-59
2023/06/13 05:49:34;;;;;;;3.83;3.25;;;;;;;;;;5032214;28;20049;-59
2023/06/13 05:52:00;;;;;;;3.55;3.25;;;;;;;;;;5024826;28;20399;-59
2023/06/13 05:54:26;;;;;;;3.95;3.30;;;;;;;;;;5032873;28;20034;-60
2023/06/13 05:56:52;;;;;;;3.75;3.45;;;;;;;;;;5029870;28;20033;-60
2023/06/13 05:59:18;;;;;;;4.15;3.30;;;;;;;;;;5032802;28;20049;-60
2023/06/13 06:01:46;;;;;;;4.10;3.20;;;;;;;;;;5027077;28;20513;-60
2023/06/13 06:04:12;;;;;;;4.38;3.55;;;;;;;;;;5025159;28;20029;-60
2023/06/13 06:06:39;;;;;;;4.72;3.53;;;;;;;;;;5030334;28;20057;-61
2023/06/13 06:09:05;;;;;;;4.35;3.88;;;;;;;;;;5031322;28;20091;-61
2023/06/13 06:11:35;;;;;;;4.25;3.85;;;;;;;;;;5026118;28;20108;-61
2023/06/13 06:14:01;;;;;;;3.92;3.50;;;;;;;;;;5024883;28;20025;-61
2023/06/13 06:16:27;;;;;;;8.63;4.35;;;;;;;;;;5029657;28;20021;-61
2023/06/13 06:18:53;;;;;;;7.03;4.10;;;;;;;;;;5032509;28;20025;-60
2023/06/13 06:21:20;;;;;;;4.35;3.60;;;;;;;;;;5030430;28;20030;-59
2023/06/13 06:23:46;;;;;;;3.78;3.47;;;;;;;;;;5032269;28;20040;-59
2023/06/13 06:26:12;;;;;;;5.00;4.13;;;;;;;;;;5028917;28;20025;-59
2023/06/13 06:28:39;;;;;;;5.10;4.20;;;;;;;;;;5031813;28;20034;-59
2023/06/13 06:31:05;;;;;;;4.82;4.38;;;;;;;;;;5032319;28;20033;-59
2023/06/13 06:33:31;;;;;;;6.40;4.80;;;;;;;;;;5031415;28;20040;-59
2023/06/13 06:35:57;;;;;;;5.53;5.03;;;;;;;;;;5032301;28;20029;-60
2023/06/13 06:38:24;;;;;;;5.75;5.25;;;;;;;;;;5031821;28;20041;-60
2023/06/13 06:40:50;;;;;;;5.60;4.75;;;;;;;;;;5029132;28;20029;-60
2023/06/13 06:43:16;;;;;;;6.88;5.03;;;;;;;;;;5032293;28;20083;-60
2023/06/13 06:45:42;;;;;;;7.20;4.75;;;;;;;;;;5021874;28;20417;-59
2023/06/13 06:48:08;;;;;;;5.32;4.82;;;;;;;;;;5031833;28;20033;-60
2023/06/13 06:50:34;;;;;;;6.95;5.32;;;;;;;;;;5030010;28;20045;-60
2023/06/13 06:53:00;;;;;;;6.15;5.55;;;;;;;;;;5027378;28;20518;-63
2023/06/13 06:55:26;;;;;;;8.23;5.72;;;;;;;;;;5025311;28;20030;-55
2023/06/13 06:57:53;;;;;;;8.20;5.80;;;;;;;;;;5032621;28;20030;-59
2023/06/13 07:00:19;;;;;;;6.13;5.53;;;;;;;;;;5027874;28;20026;-59
2023/06/13 07:02:47;;;;;;;6.40;5.68;;;;;;;;;;5037360;28;20030;-58
2023/06/13 07:05:15;;;;;;;6.32;5.82;;;;;;;;;;5031100;28;20051;-58
2023/06/13 07:07:42;;;;;;;8.48;5.63;;;;;;;;;;5032339;28;20406;-58
2023/06/13 07:10:08;;;;;;;5.95;4.93;;;;;;;;;;5034405;28;20029;-59
2023/06/13 07:12:36;;;;;;;6.85;5.95;;;;;;;;;;5034906;28;20021;-59
2023/06/13 07:15:03;;;;;;;8.55;6.60;;;;;;;;;;5034043;28;20017;-59
2023/06/13 07:17:30;;;;;;;6.53;5.93;;;;;;;;;;5035796;28;20037;-59
2023/06/13 07:19:56;;;;;;;7.50;6.57;;;;;;;;;;5022207;28;20025;-59
2023/06/13 07:22:22;;;;;;;7.68;6.72;;;;;;;;;;5035585;28;20394;-59
2023/06/13 07:24:48;;;;;;;7.53;6.82;;;;;;;;;;5034633;28;20525;-59
2023/06/13 07:27:15;;;;;;;7.65;6.30;;;;;;;;;;5031879;28;20030;-59
2023/06/13 07:29:41;;;;;;;7.22;6.53;;;;;;;;;;5031232;28;20406;-59
2023/06/13 07:32:08;;;;;;;7.35;6.60;;;;;;;;;;5035576;28;20026;-59
2023/06/13 07:34:34;;;;;;;10.00;6.43;;;;;;;;;;5024465;28;20022;-59
2023/06/13 07:37:00;;;;;;;9.18;7.05;;;;;;;;;;5032161;28;20044;-59
2023/06/13 07:39:26;;;;;;;7.05;6.43;;;;;;;;;;5033095;28;20506;-59
2023/06/13 07:41:52;;;;;;;8.88;7.57;;;;;;;;;;5032321;28;20032;-59
2023/06/13 07:44:18;;;;;;;9.05;7.30;;;;;;;;;;5027092;28;20459;-59
2023/06/13 07:46:44;;;;;;;7.63;6.65;;;;;;;;;;5020705;28;20113;-58
2023/06/13 07:49:36;;;;;;;7.45;6.75;;;;;;;;;;5034630;28;20120;-59
2023/06/13 07:52:02;;;;;;;7.72;7.03;;;;;;;;;;5017325;28;20495;-60
2023/06/13 07:54:30;;;;;;;6.75;6.10;;;;;;;;;;5036515;28;20044;-60
2023/06/13 07:56:57;;;;;;;9.25;8.30;;;;;;;;;;5029534;28;20239;-60
2023/06/13 07:59:23;;;;;;;9.65;8.85;;;;;;;;;;5025233;28;20075;-60
2023/06/13 08:01:49;;;;;;;7.25;6.65;;;;;;;;;;5035940;28;20030;-60
2023/06/13 08:04:15;;;;;;;9.50;8.52;;;;;;;;;;5031468;28;20078;-60
2023/06/13 08:06:42;;;;;;;8.68;7.88;;;;;;;;;;5025230;28;20418;-60
2023/06/13 08:09:11;;;;;;;8.57;7.57;;;;;;;;;;5033586;28;20044;-60
2023/06/13 08:11:37;;;;;;;7.93;7.18;;;;;;;;;;5034392;28;20069;-60
2023/06/13 08:14:03;;;;;;;8.68;7.13;;;;;;;;;;5030299;28;20551;-57
2023/06/13 08:16:29;;;;;;;9.98;8.43;;;;;;;;;;5030092;28;20034;-57
2023/06/13 08:18:55;;;;;;;7.75;7.05;;;;;;;;;;5032028;28;20040;-57
2023/06/13 08:21:21;;;;;;;8.38;7.55;;;;;;;;;;5031153;28;20029;-60
2023/06/13 08:23:47;;;;;;;13.27;10.90;;;;;;;;;;5031238;28;20117;-60
2023/06/13 08:26:14;;;;;;;8.38;7.57;;;;;;;;;;5031817;28;20116;-60
2023/06/13 08:28:43;;;;;;;11.18;9.70;;;;;;;;;;5045384;28;20041;-56
2023/06/13 08:31:09;;;;;;;12.40;10.02;;;;;;;;;;5030220;28;20030;-58
2023/06/13 08:33:36;;;;;;;10.32;9.23;;;;;;;;;;5032452;28;20037;-58
2023/06/13 08:36:02;;;;;;;9.30;7.72;;;;;;;;;;5033785;28;20029;-58
2023/06/13 08:38:31;;;;;;;10.10;9.02;;;;;;;;;;5032253;28;20022;-58
2023/06/13 08:40:59;;;;;;;10.00;8.10;;;;;;;;;;5034342;28;20509;-58
2023/06/13 08:43:25;;;;;;;9.95;8.35;;;;;;;;;;5030874;28;20018;-58
2023/06/13 08:45:51;;;;;;;8.20;7.43;;;;;;;;;;5033074;28;20478;-58
2023/06/13 08:48:17;;;;;;;7.20;6.60;;;;;;;;;;5032067;28;20143;-59
2023/06/13 08:50:43;;;;;;;8.02;6.45;;;;;;;;;;5032311;28;20057;-58
2023/06/13 08:53:12;;;;;;;8.32;6.18;;;;;;;;;;5034014;28;20495;-58
2023/06/13 08:55:40;;;;;;;5.72;5.20;;;;;;;;;;5033202;28;20044;-58
2023/06/13 08:58:08;;;;;;;6.60;5.18;;;;;;;;;;5034068;28;20025;-58
2023/06/13 09:00:35;;;;;;;6.45;5.05;;;;;;;;;;5034735;28;20021;-58
2023/06/13 09:03:03;;;;;;;5.18;4.70;;;;;;;;;;5033671;28;20025;-59
2023/06/13 09:05:30;;;;;;;5.43;4.80;;;;;;;;;;5029345;28;20041;-58
2023/06/13 09:07:56;;;;;;;5.43;4.93;;;;;;;;;;5022588;28;20075;-58
2023/06/13 09:10:23;;;;;;;5.82;5.22;;;;;;;;;;5032396;28;20042;-59
2023/06/13 09:12:52;;;;;;;7.38;5.10;;;;;;;;;;5032881;28;20030;-59
2023/06/13 09:15:18;;;;;;;7.80;5.13;;;;;;;;;;5028019;28;20034;-58
2023/06/13 09:17:45;;;;;;;7.90;5.40;;;;;;;;;;5030535;28;20048;-59
2023/06/13 09:20:11;;;;;;;5.63;5.13;;;;;;;;;;5031889;28;20099;-60
2023/06/13 09:22:38;;;;;;;8.85;6.30;;;;;;;;;;5033253;28;20029;-58
2023/06/13 09:25:04;;;;;;;9.00;6.35;;;;;;;;;;5031409;28;20033;-58
2023/06/13 09:27:31;;;;;;;7.43;6.50;;;;;;;;;;5033602;28;20032;-60
2023/06/13 09:30:03;;;;;;;7.93;5.65;;;;;;;;;;5030627;28;20049;-60
2023/06/13 09:32:30;;;;;;;7.15;5.82;;;;;;;;;;5032989;28;20033;-59
2023/06/13 09:34:57;;;;;;;6.60;5.82;;;;;;;;;;5032521;28;20040;-59
2023/06/13 09:37:24;;;;;;;7.43;6.15;;;;;;;;;;5028136;28;20026;-59
2023/06/13 09:39:51;;;;;;;6.60;6.00;;;;;;;;;;5034105;28;20368;-59
2023/06/13 09:42:24;;;;;;;7.43;6.10;;;;;;;;;;5037994;28;20036;-59
2023/06/13 09:44:50;;;;;;;7.38;5.97;;;;;;;;;;5033070;28;20521;-59
2023/06/13 09:47:21;;;;;;;6.40;5.82;;;;;;;;;;5040899;28;20025;-59
2023/06/13 09:49:47;;;;;;;6.70;5.97;;;;;;;;;;5036240;28;20061;-59
2023/06/13 09:52:14;;;;;;;7.00;5.43;;;;;;;;;;5036499;28;20480;-59
2023/06/13 09:54:43;;;;;;;6.90;6.18;;;;;;;;;;5033102;28;20171;-59
2023/06/13 09:57:10;;;;;;;5.72;5.20;;;;;;;;;;5031074;28;20030;-59
2023/06/13 09:59:36;;;;;;;8.45;5.68;;;;;;;;;;5033328;28;20116;-59
2023/06/13 10:02:03;;;;;;;7.03;5.85;;;;;;;;;;5032820;28;20060;-59
2023/06/13 10:04:30;;;;;;;7.20;6.43;;;;;;;;;;5027475;28;20029;-59
2023/06/13 10:06:56;;;;;;;7.80;6.53;;;;;;;;;;5030645;28;20026;-59
2023/06/13 10:09:22;;;;;;;6.97;5.88;;;;;;;;;;5036465;28;20402;-59
2023/06/13 10:11:50;;;;;;;6.78;6.07;;;;;;;;;;5033120;28;20068;-59
2023/06/13 10:14:17;;;;;;;6.55;6.00;;;;;;;;;;5036612;28;20129;-59
2023/06/13 10:16:44;;;;;;;8.05;5.55;;;;;;;;;;5034266;28;20041;-58
2023/06/13 10:19:13;;;;;;;5.75;4.82;;;;;;;;;;5034798;28;20104;-59
2023/06/13 10:21:39;;;;;;;6.38;5.78;;;;;;;;;;5035639;28;20025;-59
2023/06/13 10:24:07;;;;;;;6.75;5.53;;;;;;;;;;5031305;28;20048;-59
2023/06/13 10:26:40;;;;;;;6.28;5.78;;;;;;;;;;5037222;28;20032;-60
2023/06/13 10:29:09;;;;;;;5.57;5.03;;;;;;;;;;5046154;28;20489;-59
2023/06/13 10:31:44;;;;;;;6.75;6.10;;;;;;;;;;5032354;28;20041;-59
2023/06/13 10:34:10;;;;;;;6.63;5.00;;;;;;;;;;5038991;28;20115;-60
2023/06/13 10:36:56;;;;;;;6.35;5.63;;;;;;;;;;5048488;28;20025;-59
2023/06/13 10:39:22;;;;;;;8.73;6.82;;;;;;;;;;5044294;28;20025;-59
2023/06/13 10:41:54;;;;;;;8.57;5.88;;;;;;;;;;5038521;28;20086;-59
2023/06/13 10:44:26;;;;;;;9.15;6.10;;;;;;;;;;5051226;28;20100;-59
2023/06/13 10:46:52;;;;;;;6.60;5.82;;;;;;;;;;5043232;28;20028;-59
2023/06/13 10:49:18;;;;;;;6.38;5.82;;;;;;;;;;5051749;28;20048;-59
2023/06/13 10:51:45;;;;;;;8.00;7.07;;;;;;;;;;5037530;28;20453;-59
2023/06/13 10:54:11;;;;;;;7.60;7.00;;;;;;;;;;5052991;28;20029;-59
2023/06/13 10:56:41;;;;;;;10.65;8.63;;;;;;;;;;5038859;28;20075;-59
2023/06/13 10:59:08;;;;;;;7.38;6.75;;;;;;;;;;5045574;28;20040;-59
2023/06/13 11:01:35;;;;;;;8.65;6.80;;;;;;;;;;5050505;28;20040;-59
2023/06/13 11:04:11;;;;;;;7.45;6.75;;;;;;;;;;5039519;28;20044;-59
2023/06/13 11:06:38;;;;;;;11.48;7.70;;;;;;;;;;5034583;28;20047;-59
2023/06/13 11:09:24;;;;;;;9.65;7.30;;;;;;;;;;5035934;28;20041;-59
2023/06/13 11:11:54;;;;;;;8.57;7.78;;;;;;;;;;5034253;28;20061;-59
2023/06/13 11:14:40;;;;;;;8.68;7.57;;;;;;;;;;5036158;28;20030;-59
2023/06/13 11:17:06;;;;;;;8.18;6.50;;;;;;;;;;5033806;28;20033;-59
2023/06/13 11:19:35;;;;;;;8.98;7.00;;;;;;;;;;5036050;28;20124;-59
2023/06/13 11:22:02;;;;;;;8.25;7.45;;;;;;;;;;5034222;28;20386;-59
2023/06/13 11:24:29;;;;;;;8.90;8.13;;;;;;;;;;5035661;28;20444;-59
2023/06/13 11:27:06;;;;;;;10.15;7.35;;;;;;;;;;5031357;28;20376;-59
2023/06/13 11:29:33;;;;;;;9.63;7.57;;;;;;;;;;5032448;28;20371;-59
2023/06/13 11:32:01;;;;;;;11.38;7.63;;;;;;;;;;5035153;28;20387;-59
2023/06/13 11:34:32;;;;;;;8.63;7.47;;;;;;;;;;5034242;28;20083;-59
2023/06/13 11:37:02;;;;;;;9.18;8.38;;;;;;;;;;5034663;28;20071;-59
2023/06/13 11:39:36;;;;;;;9.07;8.27;;;;;;;;;;5033561;28;20036;-59
2023/06/13 11:42:02;;;;;;;9.43;8.07;;;;;;;;;;5033789;28;20136;-59
2023/06/13 11:44:35;;;;;;;10.57;8.68;;;;;;;;;;5033770;28;20021;-59
2023/06/13 11:47:01;;;;;;;9.07;8.18;;;;;;;;;;5034442;28;20144;-59
2023/06/13 11:49:27;;;;;;;8.73;7.93;;;;;;;;;;5034828;28;20049;-59
2023/06/13 11:51:53;;;;;;;8.75;7.82;;;;;;;;;;5032908;28;20042;-59
2023/06/13 11:54:27;;;;;;;8.73;7.60;;;;;;;;;;5033635;28;20034;-59
2023/06/13 11:56:54;;;;;;;9.70;8.80;;;;;;;;;;5033019;28;20021;-57
2023/06/13 11:59:23;;;;;;;7.88;7.18;;;;;;;;;;5035187;28;20029;-58
2023/06/13 12:01:52;;;;;;;9.52;8.45;;;;;;;;;;5025205;28;20028;-58
2023/06/13 12:04:18;;;;;;;9.15;8.25;;;;;;;;;;5034194;28;20087;-59
2023/06/13 12:06:44;;;;;;;9.88;8.90;;;;;;;;;;5032348;28;20030;-58
2023/06/13 12:09:10;;;;;;;9.50;8.50;;;;;;;;;;5032888;28;20127;-58
2023/06/13 12:11:36;;;;;;;9.93;8.98;;;;;;;;;;5033650;28;20025;-58
2023/06/13 12:14:03;;;;;;;9.90;8.57;;;;;;;;;;5034230;28;20037;-58
2023/06/13 12:16:30;;;;;;;9.65;8.75;;;;;;;;;;5035020;28;20108;-58
2023/06/13 12:18:56;;;;;;;9.68;8.73;;;;;;;;;;5033901;28;20452;-59
2023/06/13 12:21:27;;;;;;;8.10;7.30;;;;;;;;;;5032630;28;20029;-60
2023/06/13 12:23:53;;;;;;;12.05;9.00;;;;;;;;;;5034193;28;20033;-59
2023/06/13 12:26:19;;;;;;;10.43;9.63;;;;;;;;;;5032682;28;20036;-59
2023/06/13 12:28:47;;;;;;;10.40;9.38;;;;;;;;;;5034425;28;20041;-60
2023/06/13 12:31:13;;;;;;;10.00;9.00;;;;;;;;;;5028532;28;20025;-59
2023/06/13 12:33:41;;;;;;;9.18;8.38;;;;;;;;;;5034944;28;20033;-59
2023/06/13 12:36:09;;;;;;;9.63;8.57;;;;;;;;;;5032461;28;20025;-60
2023/06/13 12:38:35;;;;;;;10.48;9.10;;;;;;;;;;5028785;28;20206;-60
2023/06/13 12:41:11;;;;;;;12.90;10.05;;;;;;;;;;5031781;28;20025;-60
2023/06/13 12:43:41;;;;;;;10.48;9.48;;;;;;;;;;5032942;28;20108;-60
2023/06/13 12:46:07;;;;;;;10.90;9.90;;;;;;;;;;5034149;28;20030;-60
2023/06/13 12:48:37;;;;;;;10.07;9.10;;;;;;;;;;5032138;28;20033;-60
2023/06/13 12:51:03;;;;;;;10.80;9.70;;;;;;;;;;5032045;28;20057;-59
2023/06/13 12:53:31;;;;;;;10.48;9.38;;;;;;;;;;5027871;28;20030;-60
2023/06/13 12:56:00;;;;;;;13.57;9.82;;;;;;;;;;5031866;28;20021;-59
2023/06/13 12:58:30;;;;;;;11.10;10.10;;;;;;;;;;5033366;28;20383;-59
2023/06/13 13:00:56;;;;;;;11.00;9.90;;;;;;;;;;5032589;28;20021;-59
2023/06/13 13:03:23;;;;;;;11.13;10.23;;;;;;;;;;5032696;28;20406;-59
2023/06/13 13:05:51;;;;;;;11.93;10.93;;;;;;;;;;5029175;28;20032;-59
2023/06/13 13:08:18;;;;;;;11.63;10.45;;;;;;;;;;5033445;28;20092;-59
2023/06/13 13:10:44;;;;;;;10.18;9.25;;;;;;;;;;5031018;28;20033;-59
2023/06/13 13:13:14;;;;;;;11.50;10.05;;;;;;;;;;5033577;28;20040;-59
2023/06/13 13:15:40;;;;;;;10.05;8.98;;;;;;;;;;5033242;28;20387;-60
2023/06/13 13:18:07;;;;;;;11.10;9.93;;;;;;;;;;5031520;28;20032;-60
2023/06/13 13:20:33;;;;;;;13.10;11.93;;;;;;;;;;5030477;28;20104;-59
2023/06/13 13:23:00;;;;;;;10.45;9.35;;;;;;;;;;5032382;28;20034;-59
2023/06/13 13:25:27;;;;;;;10.85;9.75;;;;;;;;;;5033488;28;20430;-60
2023/06/13 13:27:53;;;;;;;10.88;9.77;;;;;;;;;;5024963;28;20461;-60
2023/06/13 13:30:20;;;;;;;10.00;8.85;;;;;;;;;;5025679;28;20041;-60
2023/06/13 13:32:52;;;;;;;10.13;9.13;;;;;;;;;;5032333;28;20040;-60
2023/06/13 13:35:19;;;;;;;8.57;7.78;;;;;;;;;;5033517;28;20035;-60
2023/06/13 13:37:45;;;;;;;9.77;8.45;;;;;;;;;;5032508;28;20021;-60
2023/06/13 13:40:12;;;;;;;10.05;9.13;;;;;;;;;;5030068;28;20110;-60
2023/06/13 13:42:38;;;;;;;10.07;8.77;;;;;;;;;;5032289;28;20041;-60
2023/06/13 13:45:05;;;;;;;9.65;8.73;;;;;;;;;;5032639;28;20022;-60
2023/06/13 13:47:31;;;;;;;10.93;9.60;;;;;;;;;;5026255;28;20017;-60
2023/06/13 13:50:00;;;;;;;16.17;14.15;;;;;;;;;;5033271;28;20487;-61
2023/06/13 13:52:26;;;;;;;13.95;10.20;;;;;;;;;;5031041;28;20163;-62
2023/06/13 13:57:56;;;;;;;11.05;10.05;;;;;;;;;;5025022;28;20114;-62
2023/06/13 14:00:22;;;;;;;12.02;10.75;;;;;;;;;;5031882;28;20033;-62
2023/06/13 14:02:48;;;;;;;10.10;9.10;;;;;;;;;;5030338;28;20026;-62
2023/06/13 14:05:21;;;;;;;10.23;9.30;;;;;;;;;;5032914;28;20038;-62
2023/06/13 14:07:49;;;;;;;8.73;7.90;;;;;;;;;;5030863;28;20113;-62
2023/06/13 14:10:15;;;;;;;9.80;8.90;;;;;;;;;;5031279;28;20043;-63
2023/06/13 14:12:41;;;;;;;10.55;9.48;;;;;;;;;;5033112;28;20068;-62
2023/06/13 14:15:08;;;;;;;9.80;8.98;;;;;;;;;;5029645;28;20014;-62
2023/06/13 14:17:34;;;;;;;10.63;9.20;;;;;;;;;;5027264;28;20029;-62
2023/06/13 14:20:00;;;;;;;10.18;9.15;;;;;;;;;;5034001;28;20037;-62